createdAt,value
2022-12-17T00:01:25.674Z,41.90
2022-12-17T00:04:12.704Z,44.60
2022-12-17T00:07:00.495Z,42.00
2022-12-17T00:09:50.260Z,42.70
2022-12-17T00:12:38.255Z,44.80
2022-12-17T00:15:26.569Z,46.40
2022-12-17T00:18:27.278Z,45.20
2022-12-17T00:21:18.687Z,45.00
2022-12-17T00:24:07.437Z,42.00
2022-12-17T00:26:55.720Z,43.70
2022-12-17T00:29:44.084Z,42.10
2022-12-17T00:32:30.946Z,42.70
2022-12-17T00:35:17.768Z,42.80
2022-12-17T00:38:07.503Z,37.80
2022-12-17T00:40:54.439Z,42.80
2022-12-17T00:43:44.853Z,41.10
2022-12-17T00:46:31.480Z,39.70
2022-12-17T00:49:18.483Z,37.40
2022-12-17T00:52:05.317Z,37.20
2022-12-17T00:54:52.008Z,40.40
2022-12-17T00:57:38.686Z,36.50
2022-12-17T01:00:27.329Z,40.50
2022-12-17T01:03:26.129Z,36.80
2022-12-17T01:06:15.080Z,38.90
2022-12-17T01:09:01.746Z,37.70
2022-12-17T01:11:49.254Z,36.50
2022-12-17T01:14:35.722Z,34.70
2022-12-17T01:17:22.447Z,39.80
2022-12-17T01:20:09.198Z,40.90
2022-12-17T01:22:56.442Z,38.60
2022-12-17T01:25:44.463Z,41.60
2022-12-17T01:28:31.314Z,38.20
2022-12-17T01:31:18.151Z,40.50
2022-12-17T01:34:05.847Z,36.20
2022-12-17T01:36:52.632Z,36.90
2022-12-17T01:39:39.398Z,37.80
2022-12-17T01:42:32.047Z,32.90
2022-12-17T01:45:18.974Z,39.50
2022-12-17T01:48:15.716Z,38.00
2022-12-17T01:51:10.640Z,39.40
2022-12-17T01:54:03.671Z,33.70
2022-12-17T01:56:51.567Z,36.80
2022-12-17T01:59:55.359Z,35.00
2022-12-17T02:02:42.412Z,36.80
2022-12-17T02:05:31.872Z,36.00
2022-12-17T02:08:26.195Z,33.50
2022-12-17T02:11:34.752Z,38.20
2022-12-17T02:14:42.902Z,34.80
2022-12-17T02:17:37.223Z,34.80
2022-12-17T02:20:37.532Z,37.30
2022-12-17T02:23:24.249Z,34.20
2022-12-17T02:26:27.315Z,36.30
2022-12-17T02:29:19.174Z,29.20
2022-12-17T02:32:08.494Z,33.40
2022-12-17T02:35:06.374Z,37.60
2022-12-17T02:37:55.101Z,32.90
2022-12-17T02:40:44.054Z,34.50
2022-12-17T02:43:33.692Z,35.90
2022-12-17T02:46:21.305Z,34.70
2022-12-17T02:49:11.035Z,37.30
2022-12-17T02:52:01.713Z,33.00
2022-12-17T02:54:52.827Z,33.40
2022-12-17T02:57:43.784Z,33.90
2022-12-17T03:00:33.005Z,35.50
2022-12-17T03:03:21.213Z,33.40
2022-12-17T03:06:08.226Z,32.70
2022-12-17T03:08:54.975Z,33.20
2022-12-17T03:11:46.324Z,30.90
2022-12-17T03:14:52.921Z,33.10
2022-12-17T03:17:39.950Z,31.70
2022-12-17T03:20:28.350Z,29.10
2022-12-17T03:23:27.931Z,32.10
2022-12-17T03:26:20.790Z,32.70
2022-12-17T03:29:07.691Z,30.90
2022-12-17T03:31:54.134Z,29.90
2022-12-17T03:34:40.968Z,32.40
2022-12-17T03:37:28.069Z,29.10
2022-12-17T03:40:14.800Z,29.90
2022-12-17T03:43:01.630Z,31.50
2022-12-17T03:45:48.607Z,28.60
2022-12-17T03:48:35.450Z,32.20
2022-12-17T03:51:22.087Z,29.90
2022-12-17T03:54:08.452Z,30.90
2022-12-17T03:56:55.321Z,35.80
2022-12-17T03:59:41.781Z,34.70
2022-12-17T04:02:28.515Z,30.60
2022-12-17T04:05:20.387Z,26.10
2022-12-17T04:08:08.488Z,29.20
2022-12-17T04:10:55.065Z,32.20
2022-12-17T04:13:44.969Z,30.40
2022-12-17T04:16:32.655Z,32.00
2022-12-17T04:19:19.537Z,28.10
2022-12-17T04:22:06.087Z,28.40
2022-12-17T04:24:52.962Z,29.70
2022-12-17T04:27:39.500Z,27.10
2022-12-17T04:30:27.997Z,27.30
2022-12-17T04:33:14.836Z,29.90
2022-12-17T04:36:01.628Z,24.70
2022-12-17T04:38:48.259Z,27.70
2022-12-17T04:41:34.724Z,27.50
2022-12-17T04:44:24.974Z,30.70
2022-12-17T04:47:11.810Z,31.60
2022-12-17T04:49:59.974Z,28.50
2022-12-17T04:52:46.773Z,32.30
2022-12-17T04:55:33.461Z,28.60
2022-12-17T04:58:24.797Z,30.50
2022-12-17T05:01:14.040Z,30.70
2022-12-17T05:04:01.683Z,28.60
2022-12-17T05:06:49.825Z,29.10
2022-12-17T05:09:36.617Z,31.00
2022-12-17T05:12:23.340Z,29.50
2022-12-17T05:15:10.005Z,29.20
2022-12-17T05:17:56.776Z,24.80
2022-12-17T05:20:43.171Z,29.80
2022-12-17T05:23:30.004Z,27.20
2022-12-17T05:26:23.082Z,30.60
2022-12-17T05:29:15.615Z,24.30
2022-12-17T05:32:03.852Z,26.30
2022-12-17T05:34:50.574Z,27.80
2022-12-17T05:37:37.186Z,25.20
2022-12-17T05:40:25.915Z,28.30
2022-12-17T05:43:20.072Z,30.10
2022-12-17T05:46:08.393Z,26.80
2022-12-17T05:48:56.343Z,25.30
2022-12-17T05:51:44.553Z,28.50
2022-12-17T05:54:30.954Z,28.60
2022-12-17T05:57:17.830Z,28.50
2022-12-17T06:00:04.449Z,26.20
2022-12-17T06:02:59.999Z,28.70
2022-12-17T06:05:47.897Z,27.90
2022-12-17T06:08:34.626Z,27.30
2022-12-17T06:11:21.395Z,29.70
2022-12-17T06:14:08.288Z,27.40
2022-12-17T06:16:54.976Z,27.30
2022-12-17T06:19:41.958Z,28.40
2022-12-17T06:22:29.668Z,30.00
2022-12-17T06:25:16.402Z,28.80
2022-12-17T06:28:03.129Z,32.40
2022-12-17T06:30:50.061Z,31.80
2022-12-17T06:33:36.771Z,31.90
2022-12-17T06:36:24.928Z,27.70
2022-12-17T06:39:11.463Z,29.80
2022-12-17T06:42:04.242Z,30.30
2022-12-17T06:44:52.744Z,29.00
2022-12-17T06:47:39.676Z,30.80
2022-12-17T06:50:27.690Z,37.90
2022-12-17T06:53:24.210Z,30.90
2022-12-17T06:56:16.956Z,28.50
2022-12-17T06:59:03.749Z,29.40
2022-12-17T07:01:52.580Z,30.40
2022-12-17T07:04:40.171Z,30.60
2022-12-17T07:07:26.891Z,29.10
2022-12-17T07:10:14.449Z,28.80
2022-12-17T07:13:02.620Z,34.40
2022-12-17T07:15:49.394Z,27.80
2022-12-17T07:18:40.539Z,26.10
2022-12-17T07:21:27.358Z,29.10
2022-12-17T07:24:13.849Z,26.00
2022-12-17T07:27:00.497Z,25.20
2022-12-17T07:29:47.421Z,26.80
2022-12-17T07:32:34.193Z,25.00
2022-12-17T07:35:20.915Z,26.70
2022-12-17T07:38:07.765Z,24.90
2022-12-17T07:40:54.475Z,31.60
2022-12-17T07:43:41.280Z,29.40
2022-12-17T07:46:28.054Z,28.10
2022-12-17T07:49:15.032Z,39.40
2022-12-17T07:52:01.638Z,27.00
2022-12-17T07:54:48.451Z,27.30
2022-12-17T07:57:35.244Z,27.20
2022-12-17T08:00:23.967Z,40.30
2022-12-17T08:03:17.990Z,26.70
2022-12-17T08:06:06.112Z,25.50
2022-12-17T08:08:52.511Z,28.90
2022-12-17T08:11:40.283Z,27.50
2022-12-17T08:14:26.949Z,40.60
2022-12-17T08:17:13.652Z,42.90
2022-12-17T08:20:00.473Z,33.10
2022-12-17T08:22:47.281Z,27.40
2022-12-17T08:25:34.002Z,28.40
2022-12-17T08:28:49.000Z,28.20
2022-12-17T08:31:27.244Z,31.60
2022-12-17T08:34:14.020Z,25.80
2022-12-17T08:37:00.825Z,25.10
2022-12-17T08:39:47.460Z,27.40
2022-12-17T08:42:34.170Z,26.60
2022-12-17T08:45:20.882Z,25.40
2022-12-17T08:48:07.609Z,30.90
2022-12-17T08:50:54.465Z,25.80
2022-12-17T08:53:41.289Z,25.30
2022-12-17T08:56:28.712Z,24.50
2022-12-17T08:59:15.352Z,25.00
2022-12-17T09:02:02.430Z,27.50
2022-12-17T09:04:49.627Z,24.60
2022-12-17T09:07:36.459Z,25.30
2022-12-17T09:10:23.730Z,22.70
2022-12-17T09:13:10.539Z,23.20
2022-12-17T09:15:57.221Z,25.20
2022-12-17T09:18:43.952Z,25.30
2022-12-17T09:21:30.750Z,24.70
2022-12-17T09:24:17.674Z,37.70
2022-12-17T09:27:04.948Z,35.40
2022-12-17T09:29:51.561Z,30.10
2022-12-17T09:32:38.278Z,22.90
2022-12-17T09:35:24.820Z,20.60
2022-12-17T09:38:15.368Z,22.00
2022-12-17T09:41:08.518Z,61.50
2022-12-17T09:44:23.450Z,30.30
2022-12-17T09:50:07.776Z,29.40
2022-12-17T09:52:58.632Z,27.30
2022-12-17T09:55:47.369Z,28.00
2022-12-17T09:58:41.126Z,27.20
2022-12-17T10:01:40.587Z,27.60
2022-12-17T10:04:53.590Z,25.60
2022-12-17T10:07:44.387Z,23.30
2022-12-17T10:10:38.786Z,32.50
2022-12-17T10:13:31.704Z,25.10
2022-12-17T10:16:19.083Z,25.70
2022-12-17T10:19:06.272Z,32.40
2022-12-17T10:21:54.066Z,34.50
2022-12-17T10:24:40.598Z,24.20
2022-12-17T10:27:29.278Z,31.20
2022-12-17T10:30:29.368Z,28.50
2022-12-17T10:33:16.002Z,35.40
2022-12-17T10:36:02.668Z,22.80
2022-12-17T10:38:50.383Z,26.00
2022-12-17T10:41:42.928Z,23.10
2022-12-17T10:44:59.230Z,24.50
2022-12-17T10:47:46.902Z,27.80
2022-12-17T10:50:42.711Z,31.60
2022-12-17T10:53:41.831Z,37.50
2022-12-17T10:56:44.863Z,41.40
2022-12-17T10:59:43.777Z,29.50
2022-12-17T11:02:39.864Z,19.20
2022-12-17T11:05:46.418Z,27.40
2022-12-17T11:08:35.067Z,28.90
2022-12-17T11:11:29.276Z,26.40
2022-12-17T11:14:17.833Z,28.90
2022-12-17T11:17:14.238Z,33.80
2022-12-17T11:20:11.146Z,17.60
2022-12-17T11:23:03.570Z,17.70
2022-12-17T11:26:12.571Z,19.30
2022-12-17T11:28:59.300Z,26.10
2022-12-17T11:32:04.894Z,28.70
2022-12-17T11:35:10.154Z,51.20
2022-12-17T11:38:02.854Z,30.10
2022-12-17T11:41:03.559Z,35.30
2022-12-17T11:44:21.830Z,32.10
2022-12-17T11:47:42.805Z,20.90
2022-12-17T11:50:45.481Z,32.10
2022-12-17T11:53:44.624Z,27.70
2022-12-17T11:56:47.692Z,22.30
2022-12-17T11:59:50.955Z,24.80
2022-12-17T12:03:14.616Z,24.70
2022-12-17T12:06:18.341Z,24.10
2022-12-17T12:09:17.491Z,28.40
2022-12-17T12:12:22.087Z,29.90
2022-12-17T12:15:53.516Z,34.60
2022-12-17T12:18:50.610Z,32.60
2022-12-17T12:21:44.880Z,33.40
2022-12-17T12:24:47.394Z,27.90
2022-12-17T12:27:45.827Z,34.00
2022-12-17T12:30:43.014Z,24.00
2022-12-17T12:34:04.586Z,28.40
2022-12-17T12:36:53.849Z,26.60
2022-12-17T12:40:04.339Z,21.70
2022-12-17T12:43:11.617Z,23.00
2022-12-17T12:46:41.758Z,23.40
2022-12-17T12:49:52.540Z,27.80
2022-12-17T12:52:43.288Z,30.80
2022-12-17T12:55:30.397Z,28.30
2022-12-17T12:58:22.751Z,25.70
2022-12-17T13:01:09.736Z,32.40
2022-12-17T13:04:09.938Z,34.00
2022-12-17T13:06:51.105Z,39.20
2022-12-17T13:09:20.821Z,36.00
2022-12-17T13:11:55.750Z,31.10
2022-12-17T13:14:47.900Z,23.10
2022-12-17T13:17:16.266Z,24.90
2022-12-17T13:19:57.870Z,25.20
2022-12-17T13:22:29.771Z,31.40
2022-12-17T13:25:16.045Z,26.30
2022-12-17T13:27:44.425Z,28.60
2022-12-17T13:30:18.087Z,34.60
2022-12-17T13:33:04.696Z,33.20
2022-12-17T13:35:47.478Z,31.10
2022-12-17T13:38:24.289Z,39.30
2022-12-17T13:41:30.142Z,29.60
2022-12-17T13:44:22.043Z,31.80
2022-12-17T13:46:52.757Z,29.40
2022-12-17T13:49:25.212Z,29.70
2022-12-17T13:52:11.723Z,44.50
2022-12-17T13:54:40.249Z,32.60
2022-12-17T13:57:14.885Z,31.90
2022-12-17T13:59:51.701Z,41.10
2022-12-17T14:02:31.924Z,41.40
2022-12-17T14:05:07.464Z,34.10
2022-12-17T14:07:39.586Z,32.80
2022-12-17T14:10:17.162Z,42.00
2022-12-17T14:12:47.398Z,29.80
2022-12-17T14:15:25.807Z,32.30
2022-12-17T14:17:55.202Z,50.10
2022-12-17T14:20:26.385Z,35.70
2022-12-17T14:22:59.744Z,35.20
2022-12-17T14:25:34.514Z,29.00
2022-12-17T14:28:28.751Z,31.40
2022-12-17T14:31:31.605Z,34.00
2022-12-17T14:34:11.613Z,24.40
2022-12-17T14:36:42.441Z,39.20
2022-12-17T14:39:21.165Z,27.50
2022-12-17T14:42:08.000Z,33.70
2022-12-17T14:44:43.003Z,35.00
2022-12-17T14:47:25.415Z,38.80
2022-12-17T14:50:30.934Z,43.20
2022-12-17T14:53:02.410Z,52.90
2022-12-17T14:55:55.198Z,32.40
2022-12-17T14:58:26.784Z,31.30
2022-12-17T15:01:12.860Z,44.30
2022-12-17T15:03:46.344Z,82.90
2022-12-17T15:06:19.992Z,93.40
2022-12-17T15:08:53.310Z,41.00
2022-12-17T15:11:23.174Z,45.00
2022-12-17T15:13:56.112Z,53.10
2022-12-17T15:16:25.064Z,42.80
2022-12-17T15:18:53.270Z,50.90
2022-12-17T15:21:22.240Z,284.00
2022-12-17T15:23:50.624Z,234.50
2022-12-17T15:26:20.151Z,171.50
2022-12-17T15:28:48.146Z,88.50
2022-12-17T15:31:20.567Z,54.00
2022-12-17T15:33:51.685Z,59.40
2022-12-17T15:36:19.637Z,87.70
2022-12-17T15:38:48.883Z,112.20
2022-12-17T15:41:35.798Z,163.10
2022-12-17T15:44:03.842Z,177.10
2022-12-17T15:46:31.781Z,109.60
2022-12-17T15:49:02.307Z,83.40
2022-12-17T15:51:30.317Z,51.00
2022-12-17T15:53:58.244Z,204.20
2022-12-17T15:56:30.205Z,217.10
2022-12-17T15:58:59.094Z,67.30
2022-12-17T16:01:27.237Z,84.90
2022-12-17T16:03:55.527Z,120.80
2022-12-17T16:06:23.731Z,190.60
2022-12-17T16:08:51.673Z,156.40
2022-12-17T16:11:19.819Z,112.90
2022-12-17T16:13:53.244Z,146.40
2022-12-17T16:16:25.119Z,90.40
2022-12-17T16:18:53.164Z,170.10
2022-12-17T16:21:21.339Z,164.70
2022-12-17T16:23:49.567Z,89.00
2022-12-17T16:26:17.557Z,69.40
2022-12-17T16:28:45.606Z,154.20
2022-12-17T16:31:16.391Z,167.80
2022-12-17T16:33:45.738Z,72.00
2022-12-17T16:36:16.181Z,56.00
2022-12-17T16:38:52.281Z,84.50
2022-12-17T16:41:22.018Z,58.90
2022-12-17T16:43:50.823Z,108.30
2022-12-17T16:46:29.804Z,383.80
2022-12-17T16:49:03.904Z,105.90
2022-12-17T16:51:31.980Z,108.00
2022-12-17T16:54:05.236Z,46.90
2022-12-17T16:56:38.125Z,70.40
2022-12-17T16:59:10.329Z,132.00
2022-12-17T17:01:40.110Z,112.10
2022-12-17T17:04:10.001Z,146.00
2022-12-17T17:06:42.978Z,209.80
2022-12-17T17:09:12.518Z,92.40
2022-12-17T17:11:41.466Z,137.00
2022-12-17T17:14:09.485Z,52.20
2022-12-17T17:16:38.220Z,48.50
2022-12-17T17:19:06.840Z,84.40
2022-12-17T17:21:40.291Z,62.00
2022-12-17T17:24:20.824Z,67.80
2022-12-17T17:26:52.030Z,117.00
2022-12-17T17:29:20.206Z,83.20
2022-12-17T17:34:39.799Z,60.30
2022-12-17T17:37:09.663Z,46.50
2022-12-17T17:39:37.747Z,46.60
2022-12-17T17:42:06.291Z,42.20
2022-12-17T17:44:34.948Z,35.60
2022-12-17T17:47:03.291Z,44.40
2022-12-17T17:49:31.249Z,37.20
2022-12-17T17:52:14.372Z,220.80
2022-12-17T17:54:42.693Z,40.90
2022-12-17T17:57:11.803Z,36.80
2022-12-17T17:59:40.080Z,33.80
2022-12-17T18:02:11.128Z,27.00
2022-12-17T18:04:40.289Z,25.20
2022-12-17T18:07:24.703Z,30.60
2022-12-17T18:09:55.386Z,23.80
2022-12-17T18:12:42.975Z,22.50
2022-12-17T18:15:15.939Z,22.10
2022-12-17T18:17:46.927Z,23.50
2022-12-17T18:20:15.664Z,26.10
2022-12-17T18:22:46.071Z,25.30
2022-12-17T18:25:16.666Z,24.50
2022-12-17T18:27:45.150Z,23.90
2022-12-17T18:30:14.162Z,25.30
2022-12-17T18:32:42.431Z,30.10
2022-12-17T18:35:10.572Z,28.90
2022-12-17T18:37:39.142Z,27.30
2022-12-17T18:40:08.640Z,28.30
2022-12-17T18:42:56.186Z,22.00
2022-12-17T18:45:24.104Z,25.70
2022-12-17T18:47:52.061Z,56.20
2022-12-17T18:50:19.927Z,62.90
2022-12-17T18:52:47.901Z,45.60
2022-12-17T18:55:16.535Z,29.00
2022-12-17T18:57:44.574Z,30.20
2022-12-17T19:00:13.348Z,30.80
2022-12-17T19:02:41.714Z,24.70
2022-12-17T19:05:10.016Z,44.40
2022-12-17T19:07:37.917Z,40.60
2022-12-17T19:10:06.276Z,171.90
2022-12-17T19:12:34.288Z,52.00
2022-12-17T19:15:02.431Z,28.00
2022-12-17T19:17:30.407Z,24.00
2022-12-17T19:19:58.349Z,44.90
2022-12-17T19:22:26.260Z,191.70
2022-12-17T19:24:54.335Z,44.50
2022-12-17T19:27:22.212Z,25.40
2022-12-17T19:29:55.345Z,27.10
2022-12-17T19:32:24.953Z,54.40
2022-12-17T19:34:52.877Z,46.30
2022-12-17T19:37:20.769Z,44.50
2022-12-17T19:39:48.667Z,45.70
2022-12-17T19:42:25.093Z,34.20
2022-12-17T19:44:55.187Z,28.70
2022-12-17T19:47:24.234Z,33.50
2022-12-17T19:49:52.156Z,43.70
2022-12-17T19:52:20.065Z,43.70
2022-12-17T19:54:49.559Z,42.40
2022-12-17T19:57:17.677Z,52.70
2022-12-17T19:59:45.589Z,45.60
2022-12-17T20:02:15.956Z,37.10
2022-12-17T20:04:44.170Z,31.20
2022-12-17T20:07:12.152Z,26.30
2022-12-17T20:09:44.808Z,140.00
2022-12-17T20:12:13.381Z,75.80
2022-12-17T20:14:41.335Z,22.40
2022-12-17T20:17:09.639Z,21.40
2022-12-17T20:19:37.681Z,20.60
2022-12-17T20:22:06.503Z,27.40
2022-12-17T20:24:34.490Z,24.10
2022-12-17T20:27:02.556Z,26.80
2022-12-17T20:29:30.398Z,40.20
2022-12-17T20:32:01.495Z,26.80
2022-12-17T20:34:29.491Z,23.80
2022-12-17T20:36:57.491Z,28.60
2022-12-17T20:39:28.222Z,66.00
2022-12-17T20:41:57.475Z,29.60
2022-12-17T20:44:26.041Z,28.00
2022-12-17T20:46:54.133Z,25.20
2022-12-17T20:49:22.171Z,23.60
2022-12-17T20:51:50.248Z,23.80
2022-12-17T20:54:18.670Z,21.70
2022-12-17T20:56:47.285Z,27.20
2022-12-17T20:59:18.830Z,24.20
2022-12-17T21:01:52.811Z,26.70
2022-12-17T21:04:24.078Z,46.60
2022-12-17T21:06:53.126Z,69.00
2022-12-17T21:09:22.806Z,33.10
2022-12-17T21:12:16.493Z,30.20
2022-12-17T21:14:44.806Z,34.10
2022-12-17T21:17:16.159Z,26.20
2022-12-17T21:19:44.299Z,30.80
2022-12-17T21:22:15.137Z,41.90
2022-12-17T21:24:43.088Z,31.10
2022-12-17T21:27:14.989Z,35.10
2022-12-17T21:29:43.452Z,30.40
2022-12-17T21:32:11.348Z,53.50
2022-12-17T21:34:39.576Z,34.30
2022-12-17T21:37:09.619Z,39.50
2022-12-17T21:39:37.870Z,52.70
2022-12-17T21:42:24.407Z,43.80
2022-12-17T21:44:52.241Z,49.10
2022-12-17T21:47:20.829Z,35.70
2022-12-17T21:49:48.766Z,34.10
2022-12-17T21:52:16.594Z,35.50
2022-12-17T21:54:44.574Z,41.30
2022-12-17T21:57:12.419Z,34.10
2022-12-17T21:59:41.323Z,34.60
2022-12-17T22:02:10.930Z,44.40
2022-12-17T22:04:39.075Z,31.30
2022-12-17T22:07:29.727Z,32.10
2022-12-17T22:10:24.690Z,37.80
2022-12-17T22:13:01.847Z,33.40
2022-12-17T22:15:29.993Z,28.40
2022-12-17T22:18:01.568Z,35.40
2022-12-17T22:20:29.623Z,33.00
2022-12-17T22:22:57.503Z,31.70
2022-12-17T22:25:25.786Z,33.80
2022-12-17T22:27:53.909Z,29.80
2022-12-17T22:30:40.620Z,27.90
2022-12-17T22:33:14.768Z,27.00
2022-12-17T22:37:42.662Z,29.10
2022-12-17T22:44:18.675Z,28.40
2022-12-17T22:44:37.551Z,28.40
2022-12-17T22:44:55.804Z,31.70
2022-12-17T22:47:25.734Z,34.30
2022-12-17T22:49:53.627Z,29.20
2022-12-17T22:52:22.314Z,32.90
2022-12-17T22:54:50.713Z,25.70
2022-12-17T22:57:35.907Z,30.10
2022-12-17T23:00:16.942Z,25.80
2022-12-17T23:02:44.980Z,25.90
2022-12-17T23:05:14.948Z,32.00
2022-12-17T23:07:42.844Z,53.20
2022-12-17T23:10:10.890Z,62.80
2022-12-17T23:12:50.971Z,39.40
2022-12-17T23:15:32.792Z,44.50
2022-12-17T23:18:03.832Z,31.00
2022-12-17T23:20:34.192Z,40.10
2022-12-17T23:23:02.356Z,28.80
2022-12-17T23:25:31.229Z,27.90
2022-12-17T23:27:59.149Z,27.10
2022-12-17T23:30:27.004Z,26.60
2022-12-17T23:32:54.879Z,25.80
2022-12-17T23:35:22.975Z,23.60
2022-12-17T23:37:50.952Z,27.60
2022-12-17T23:40:19.125Z,31.20
2022-12-17T23:42:47.123Z,24.70
2022-12-17T23:45:15.076Z,25.10
2022-12-17T23:47:43.118Z,22.50
2022-12-17T23:50:11.789Z,24.60
2022-12-17T23:52:40.247Z,25.90
2022-12-17T23:55:08.920Z,25.00
2022-12-17T23:57:37.766Z,25.00
